Összefoglaló Pér: 

VentuSky:

Felhőkép magyaroszág: 

 

 

Keresés

Felhőkép 

Felhőkép

Széltérkép

Széltérkép

Győr-Pér Repülőtér

Élő webkamera kép

 Nagyobb kép

Győr-Pér Repülőtér

[Source: ADDS]
METAR
LHPR 230315Z AUTO 28007KT CAVOK 09/07 Q1020 RMK BLU =
TAF
SR / SS: 02:51 / 18:50 UTC (Napkelte / Napnyugta 2018-06-23)

Kapcsolat

Telephely:     9099 Pér, Repülõtér

Klubhelyiség: 9021 Gyõr, Városház tér 3.

E-mail: info@aeroclub-gyor.hu

Telefon: 06-20-777-9106

Adószám: 19113832-2-08

  
Joomla űrlapépítő by JoomlaShine
JSN Metro template designed by JoomlaShine.com